Time;durP1;ratioP1;P1;durP2;ratioP2;P2;SDS_P1;SDS_P2;PMS_P1;PMS_P2;Temp;Humidity;BMP_temperature;BMP_pressure;BME280_temperature;BME280_humidity;BME280_pressure;Samples;Min_cycle;Max_cycle;Signal;HPM_P1;HPM_P2
2022/03/15 00:01:54;;;;;;;1.77;1.63;;;6.20;78.40;;;;;;5051743;28;21009;-44
2022/03/15 00:04:21;;;;;;;2.17;1.73;;;6.10;78.10;;;;;;5052013;28;20499;-44
2022/03/15 00:06:49;;;;;;;2.00;1.90;;;6.10;78.10;;;;;;5052214;28;20536;-44
2022/03/15 00:09:16;;;;;;;3.30;1.80;;;5.80;78.40;;;;;;5051823;28;20476;-44
2022/03/15 00:11:44;;;;;;;2.20;2.03;;;5.80;78.50;;;;;;5051678;28;20511;-44
2022/03/15 00:14:14;;;;;;;2.50;1.57;;;5.80;78.40;;;;;;5051750;28;20532;-45
2022/03/15 00:16:41;;;;;;;2.00;1.80;;;5.30;79.10;;;;;;5051826;28;20445;-44
2022/03/15 00:19:09;;;;;;;4.07;1.97;;;5.60;79.40;;;;;;5050625;28;20452;-46
2022/03/15 00:21:37;;;;;;;2.60;2.40;;;5.80;79.00;;;;;;5052005;28;20465;-44
2022/03/15 00:24:07;;;;;;;1.90;1.80;;;6.10;79.30;;;;;;5051753;28;20535;-44
2022/03/15 00:26:35;;;;;;;3.03;2.10;;;6.00;78.40;;;;;;5051482;28;20564;-44
2022/03/15 00:29:02;;;;;;;4.13;1.57;;;6.00;78.10;;;;;;5051578;28;20846;-44
2022/03/15 00:31:28;;;;;;;1.80;1.70;;;5.70;78.90;;;;;;5051526;28;20504;-44
2022/03/15 00:33:55;;;;;;;2.00;1.60;;;5.90;80.00;;;;;;5051531;28;20480;-45
2022/03/15 00:36:22;;;;;;;2.33;1.80;;;6.00;79.40;;;;;;5051881;28;20468;-44
2022/03/15 00:38:49;;;;;;;2.40;2.20;;;5.90;79.20;;;;;;5051767;28;20956;-44
2022/03/15 00:41:18;;;;;;;2.80;2.40;;;6.00;79.70;;;;;;5051769;28;20489;-44
2022/03/15 00:43:45;;;;;;;2.20;2.00;;;6.10;80.00;;;;;;5051467;28;20477;-47
2022/03/15 00:46:12;;;;;;;2.73;2.00;;;5.40;79.10;;;;;;5051289;28;20962;-44
2022/03/15 00:48:39;;;;;;;2.33;2.00;;;5.30;80.50;;;;;;5051543;28;20477;-44
2022/03/15 00:51:06;;;;;;;1.90;1.73;;;5.50;80.80;;;;;;5051379;28;20495;-46
2022/03/15 00:53:33;;;;;;;2.00;1.80;;;5.60;80.60;;;;;;5051039;28;20469;-44
2022/03/15 00:56:01;;;;;;;1.87;1.53;;;5.70;79.00;;;;;;5051289;28;20965;-45
2022/03/15 00:58:29;;;;;;;1.40;1.30;;;5.30;79.30;;;;;;5051453;28;20516;-45
2022/03/15 01:00:56;;;;;;;3.83;2.87;;;5.40;80.50;;;;;;5051737;28;20511;-45
2022/03/15 01:03:23;;;;;;;3.10;1.90;;;5.50;82.70;;;;;;5051382;28;20969;-44
2022/03/15 01:05:50;;;;;;;2.00;1.50;;;5.50;81.60;;;;;;5051109;28;20442;-44
2022/03/15 01:08:17;;;;;;;2.90;1.60;;;5.20;81.00;;;;;;5051179;28;20589;-44
2022/03/15 01:10:45;;;;;;;2.60;2.40;;;5.40;80.90;;;;;;5050672;28;20497;-44
2022/03/15 01:13:12;;;;;;;3.10;2.43;;;5.50;81.50;;;;;;5051033;28;20468;-42
2022/03/15 01:15:43;;;;;;;2.03;1.80;;;5.70;80.90;;;;;;5051273;28;20886;-42
2022/03/15 01:18:11;;;;;;;2.20;2.00;;;5.20;80.90;;;;;;5051105;28;20882;-43
2022/03/15 01:20:40;;;;;;;2.80;2.33;;;5.00;81.80;;;;;;5051127;28;20552;-42
2022/03/15 01:23:07;;;;;;;2.17;1.97;;;5.10;80.90;;;;;;5051476;28;20452;-43
2022/03/15 01:25:34;;;;;;;1.70;1.23;;;5.20;81.40;;;;;;5050895;28;20957;-42
2022/03/15 01:28:01;;;;;;;3.33;2.43;;;5.30;81.70;;;;;;5051117;28;20477;-43
2022/03/15 01:30:30;;;;;;;1.77;1.67;;;5.40;82.20;;;;;;5053112;28;20496;-42
2022/03/15 01:32:58;;;;;;;2.47;2.27;;;5.50;81.70;;;;;;5055017;28;20445;-42
2022/03/15 01:35:25;;;;;;;2.60;1.97;;;5.60;83.00;;;;;;5055100;28;20532;-42
2022/03/15 01:37:52;;;;;;;2.20;2.00;;;5.70;82.50;;;;;;5054827;28;20870;-42
2022/03/15 01:40:20;;;;;;;2.53;2.33;;;5.60;82.20;;;;;;5054522;28;20489;-42
2022/03/15 01:42:47;;;;;;;3.30;2.07;;;5.60;81.70;;;;;;5054565;28;20499;-42
2022/03/15 01:45:14;;;;;;;3.50;2.00;;;5.70;82.70;;;;;;5054713;28;20481;-42
2022/03/15 01:47:42;;;;;;;3.60;2.87;;;5.60;81.40;;;;;;5054702;28;20560;-42
2022/03/15 01:50:11;;;;;;;2.93;2.23;;;5.70;81.70;;;;;;5054300;28;20996;-42
2022/03/15 01:52:38;;;;;;;2.20;2.00;;;5.70;80.60;;;;;;5054359;28;20477;-42
2022/03/15 01:55:06;;;;;;;2.03;1.80;;;5.50;80.70;;;;;;5054562;28;20897;-42
2022/03/15 01:57:34;;;;;;;1.40;1.03;;;5.70;81.40;;;;;;5054616;28;20512;-42
2022/03/15 02:00:00;;;;;;;1.97;1.77;;;5.30;81.30;;;;;;5054192;28;20917;-42
2022/03/15 02:02:27;;;;;;;2.27;1.90;;;5.20;81.80;;;;;;5054620;28;20524;-42
2022/03/15 02:04:54;;;;;;;1.70;1.60;;;5.40;82.50;;;;;;5054185;28;20886;-42
2022/03/15 02:07:23;;;;;;;2.13;1.93;;;5.00;84.00;;;;;;5054252;28;20537;-44
2022/03/15 02:09:50;;;;;;;2.50;1.40;;;4.90;83.40;;;;;;5053996;28;20500;-43
2022/03/15 02:12:16;;;;;;;4.17;2.10;;;5.10;84.60;;;;;;5054552;28;20447;-42
2022/03/15 02:14:43;;;;;;;3.20;2.60;;;5.30;85.30;;;;;;5054180;28;20469;-42
2022/03/15 02:17:10;;;;;;;2.50;2.30;;;5.50;84.90;;;;;;5054188;28;20536;-43
2022/03/15 02:19:38;;;;;;;1.93;1.70;;;5.50;83.90;;;;;;5054016;28;20818;-43
2022/03/15 02:22:06;;;;;;;2.17;2.00;;;5.10;83.30;;;;;;5054127;28;20892;-43
2022/03/15 02:24:34;;;;;;;2.87;2.33;;;5.10;83.70;;;;;;5053807;28;20882;-42
2022/03/15 02:27:01;;;;;;;3.23;2.03;;;5.30;83.70;;;;;;5053941;28;20811;-43
2022/03/15 02:29:29;;;;;;;2.70;1.83;;;5.00;82.70;;;;;;5053911;28;20477;-42
2022/03/15 02:31:56;;;;;;;3.00;2.20;;;4.80;84.00;;;;;;5053805;28;20437;-42
2022/03/15 02:34:23;;;;;;;2.50;2.30;;;5.00;83.80;;;;;;5053892;28;20842;-44
2022/03/15 02:36:50;;;;;;;2.27;2.03;;;5.30;85.90;;;;;;5054032;28;20449;-42
2022/03/15 02:39:19;;;;;;;4.37;3.10;;;5.40;85.60;;;;;;5053511;28;20528;-43
2022/03/15 02:41:46;;;;;;;7.77;2.80;;;5.40;85.80;;;;;;5052662;28;20465;-42
2022/03/15 02:44:12;;;;;;;2.83;1.70;;;5.50;84.90;;;;;;5053334;28;20469;-42
2022/03/15 02:46:40;;;;;;;1.83;1.43;;;5.50;83.90;;;;;;5053744;28;20468;-42
2022/03/15 02:49:07;;;;;;;4.10;1.70;;;5.50;84.40;;;;;;5053431;28;20477;-42
2022/03/15 02:51:34;;;;;;;1.30;1.20;;;5.60;83.70;;;;;;5053598;28;21170;-42
2022/03/15 02:54:02;;;;;;;1.63;1.53;;;5.40;82.60;;;;;;5053247;28;20481;-42
2022/03/15 02:56:33;;;;;;;1.83;1.50;;;5.30;83.40;;;;;;5053511;28;20453;-43
2022/03/15 02:59:00;;;;;;;2.67;2.13;;;5.30;83.40;;;;;;5053445;28;20449;-42
2022/03/15 03:01:27;;;;;;;2.50;2.30;;;5.20;85.10;;;;;;5053309;28;20501;-42
2022/03/15 03:03:54;;;;;;;3.33;2.50;;;5.00;85.70;;;;;;5053395;28;20503;-42
2022/03/15 03:06:21;;;;;;;3.23;2.30;;;4.40;88.10;;;;;;5053319;28;20476;-42
2022/03/15 03:08:47;;;;;;;1.80;1.70;;;4.10;89.50;;;;;;5053134;28;20567;-42
2022/03/15 03:11:15;;;;;;;1.80;1.70;;;4.20;86.40;;;;;;5052749;28;20887;-42
2022/03/15 03:13:44;;;;;;;2.30;2.07;;;4.40;83.70;;;;;;5053095;28;20535;-42
2022/03/15 03:16:13;;;;;;;1.90;1.43;;;4.60;85.00;;;;;;5053375;28;20448;-42
2022/03/15 03:18:40;;;;;;;2.77;2.50;;;4.60;84.80;;;;;;5053151;28;20437;-43
2022/03/15 03:21:07;;;;;;;4.03;2.90;;;4.60;87.50;;;;;;5052832;28;20508;-42
2022/03/15 03:23:36;;;;;;;7.73;2.90;;;4.40;88.90;;;;;;5053114;28;20528;-42
2022/03/15 03:26:03;;;;;;;3.73;2.33;;;4.10;89.50;;;;;;5052994;28;20477;-43
2022/03/15 03:28:36;;;;;;;2.90;2.17;;;4.10;89.90;;;;;;5052813;28;20477;-42
2022/03/15 03:31:05;;;;;;;3.00;2.30;;;4.50;88.30;;;;;;5052393;28;20473;-43
2022/03/15 03:33:33;;;;;;;2.07;1.90;;;4.70;87.90;;;;;;5053033;28;20445;-42
2022/03/15 03:36:00;;;;;;;3.23;2.47;;;4.80;88.10;;;;;;5052694;28;20959;-42
2022/03/15 03:38:27;;;;;;;2.17;1.97;;;5.00;87.10;;;;;;5052612;28;20881;-42
2022/03/15 03:40:54;;;;;;;2.60;1.90;;;4.70;85.30;;;;;;5052517;28;20891;-42
2022/03/15 03:43:22;;;;;;;2.43;2.00;;;4.90;85.50;;;;;;5052496;28;20452;-43
2022/03/15 03:45:49;;;;;;;2.70;2.10;;;5.10;87.10;;;;;;5052319;28;20958;-42
2022/03/15 03:48:17;;;;;;;2.57;1.90;;;5.30;85.70;;;;;;5052140;28;21012;-43
2022/03/15 03:50:44;;;;;;;3.30;2.20;;;5.50;85.40;;;;;;5052053;28;21000;-43
2022/03/15 03:53:12;;;;;;;2.23;1.60;;;5.50;85.40;;;;;;5051979;28;20477;-42
2022/03/15 03:55:39;;;;;;;1.80;1.40;;;5.70;86.00;;;;;;5052380;28;20467;-42
2022/03/15 03:58:05;;;;;;;1.50;1.40;;;5.80;83.80;;;;;;5052380;28;20473;-43
2022/03/15 04:00:32;;;;;;;3.50;1.80;;;5.90;83.20;;;;;;5051715;28;20993;-43
2022/03/15 04:03:00;;;;;;;1.83;1.73;;;5.90;84.40;;;;;;5051998;28;20477;-42
2022/03/15 04:05:30;;;;;;;2.40;1.97;;;5.80;85.90;;;;;;5052155;28;20445;-43
2022/03/15 04:07:59;;;;;;;2.63;2.40;;;5.70;86.70;;;;;;5051962;28;20803;-42
2022/03/15 04:10:27;;;;;;;3.00;2.70;;;5.60;86.80;;;;;;5051518;28;20495;-42
2022/03/15 04:12:55;;;;;;;2.37;1.97;;;5.70;87.20;;;;;;5052039;28;20453;-42
2022/03/15 04:15:22;;;;;;;4.00;2.30;;;5.70;88.30;;;;;;5051665;28;20452;-42
2022/03/15 04:17:49;;;;;;;3.00;2.80;;;5.60;88.20;;;;;;5052105;28;20528;-42
2022/03/15 04:20:16;;;;;;;2.17;2.03;;;5.50;87.70;;;;;;5051626;28;20895;-44
2022/03/15 04:22:45;;;;;;;4.53;2.73;;;5.70;87.70;;;;;;5051868;28;20495;-42
2022/03/15 04:25:12;;;;;;;2.57;1.80;;;5.70;85.80;;;;;;5051898;28;20482;-42
2022/03/15 04:27:39;;;;;;;2.97;1.80;;;5.60;86.70;;;;;;5051809;28;20485;-42
2022/03/15 04:30:07;;;;;;;1.53;1.43;;;5.30;86.10;;;;;;5051271;28;20481;-42
2022/03/15 04:32:34;;;;;;;1.73;1.27;;;5.40;86.80;;;;;;5051663;28;20535;-42
2022/03/15 04:35:01;;;;;;;6.70;5.13;;;5.50;87.50;;;;;;5051776;28;20441;-43
2022/03/15 04:37:28;;;;;;;5.57;3.70;;;5.60;85.90;;;;;;5051880;28;20524;-42
2022/03/15 04:39:57;;;;;;;2.80;2.60;;;5.70;85.60;;;;;;5051474;28;20457;-43
2022/03/15 04:42:24;;;;;;;3.70;3.20;;;5.70;87.10;;;;;;5051618;28;20450;-42
2022/03/15 04:44:51;;;;;;;3.10;2.90;;;5.70;88.30;;;;;;5051277;28;20822;-42
2022/03/15 04:47:19;;;;;;;3.00;2.67;;;5.80;88.20;;;;;;5051485;28;20528;-42
2022/03/15 04:49:46;;;;;;;2.37;2.13;;;5.70;87.60;;;;;;5050831;28;20492;-43
2022/03/15 04:52:13;;;;;;;2.70;2.50;;;5.70;87.70;;;;;;5051335;28;20477;-43
2022/03/15 04:54:40;;;;;;;5.37;3.87;;;5.50;88.20;;;;;;5051137;28;20469;-42
2022/03/15 04:57:08;;;;;;;5.53;4.50;;;5.10;86.50;;;;;;5051213;28;20473;-42
2022/03/15 04:59:35;;;;;;;3.33;2.40;;;5.30;85.90;;;;;;5050763;28;20473;-42
2022/03/15 05:02:02;;;;;;;2.60;2.20;;;5.30;85.60;;;;;;5051532;28;20473;-43
2022/03/15 05:04:29;;;;;;;2.63;2.37;;;5.40;84.50;;;;;;5050803;28;20528;-42
2022/03/15 05:06:56;;;;;;;4.13;2.23;;;5.40;85.40;;;;;;5051425;28;20520;-42
2022/03/15 05:09:23;;;;;;;3.50;2.33;;;5.50;85.30;;;;;;5050753;28;21065;-44
2022/03/15 05:11:49;;;;;;;3.03;2.70;;;5.50;86.00;;;;;;5050648;28;20489;-42
2022/03/15 05:14:17;;;;;;;4.43;3.03;;;5.70;87.70;;;;;;5051256;28;20921;-43
2022/03/15 05:16:44;;;;;;;5.27;3.10;;;5.70;87.90;;;;;;5051185;28;20574;-42
2022/03/15 05:19:12;;;;;;;4.10;2.60;;;5.50;87.70;;;;;;5051032;28;20473;-44
2022/03/15 05:21:39;;;;;;;2.33;2.13;;;4.90;89.00;;;;;;5051683;28;20465;-43
2022/03/15 05:24:06;;;;;;;3.03;2.23;;;4.80;87.50;;;;;;5050968;28;20853;-43
2022/03/15 05:26:33;;;;;;;2.07;1.87;;;5.00;88.40;;;;;;5051104;28;20472;-42
2022/03/15 05:29:00;;;;;;;2.27;2.07;;;5.20;88.50;;;;;;5051032;28;20557;-42
2022/03/15 05:31:29;;;;;;;2.20;2.00;;;5.40;87.90;;;;;;5050989;28;20493;-42
2022/03/15 05:33:56;;;;;;;4.53;2.67;;;5.50;86.50;;;;;;5050999;28;20954;-43
2022/03/15 05:36:23;;;;;;;4.40;3.03;;;5.60;87.30;;;;;;5051027;28;20532;-42
2022/03/15 05:38:50;;;;;;;6.50;3.70;;;5.60;89.10;;;;;;5050891;28;20597;-42
2022/03/15 05:41:17;;;;;;;5.90;5.40;;;5.60;89.70;;;;;;5050757;28;20966;-43
2022/03/15 05:43:44;;;;;;;4.67;4.27;;;5.80;88.70;;;;;;5050903;28;20473;-42
2022/03/15 05:46:11;;;;;;;4.03;3.63;;;5.70;89.20;;;;;;5051275;28;20524;-44
2022/03/15 05:48:39;;;;;;;3.80;3.20;;;5.60;90.00;;;;;;5050816;28;20575;-42
2022/03/15 05:51:06;;;;;;;3.60;3.30;;;5.50;90.00;;;;;;5050482;28;20966;-42
2022/03/15 05:53:33;;;;;;;2.97;2.60;;;5.20;88.90;;;;;;5050190;28;20483;-42
2022/03/15 05:56:00;;;;;;;2.90;2.50;;;5.10;90.00;;;;;;5050801;28;20524;-43
2022/03/15 05:58:27;;;;;;;3.97;2.40;;;5.30;89.90;;;;;;5050843;28;20973;-42
2022/03/15 06:00:56;;;;;;;4.20;3.40;;;5.50;89.00;;;;;;5050507;28;20484;-44
2022/03/15 06:03:23;;;;;;;3.53;3.00;;;5.60;89.40;;;;;;5050873;28;20499;-43
2022/03/15 06:05:52;;;;;;;4.10;3.70;;;5.30;90.40;;;;;;5050780;28;20512;-42
2022/03/15 06:08:19;;;;;;;4.53;3.27;;;5.60;90.20;;;;;;5050988;28;20446;-42
2022/03/15 06:10:46;;;;;;;3.80;3.17;;;5.50;90.30;;;;;;5050417;28;20513;-42
2022/03/15 06:13:13;;;;;;;3.87;2.90;;;5.30;89.30;;;;;;5050956;28;20516;-42
2022/03/15 06:15:40;;;;;;;3.63;2.37;;;5.60;87.80;;;;;;5050751;28;20876;-43
2022/03/15 06:18:07;;;;;;;6.87;2.67;;;5.40;87.90;;;;;;5053993;28;20476;-42
2022/03/15 06:20:34;;;;;;;3.47;2.23;;;5.50;87.80;;;;;;5053742;28;20888;-42
2022/03/15 06:23:03;;;;;;;2.03;1.93;;;5.60;89.10;;;;;;5054000;28;20849;-44
2022/03/15 06:25:31;;;;;;;3.20;2.60;;;5.70;88.60;;;;;;5054368;28;20469;-43
2022/03/15 06:27:58;;;;;;;4.63;4.10;;;6.00;85.90;;;;;;5054175;28;20450;-43
2022/03/15 06:30:25;;;;;;;6.67;5.00;;;5.90;89.60;;;;;;5053685;28;20481;-42
2022/03/15 06:32:52;;;;;;;6.27;4.70;;;5.90;90.30;;;;;;5053784;28;20541;-42
2022/03/15 06:35:20;;;;;;;9.37;7.03;;;5.60;91.40;;;;;;5054007;28;21054;-43
2022/03/15 06:37:49;;;;;;;8.50;6.13;;;5.60;92.00;;;;;;5053909;28;20489;-43
2022/03/15 06:40:21;;;;;;;8.43;5.77;;;5.10;91.70;;;;;;5053658;28;20587;-42
2022/03/15 06:42:48;;;;;;;4.20;3.00;;;5.10;92.30;;;;;;5053745;28;20502;-42
2022/03/15 06:45:15;;;;;;;4.03;3.73;;;5.20;90.60;;;;;;5053341;28;20964;-42
2022/03/15 06:47:42;;;;;;;6.37;5.00;;;5.50;91.40;;;;;;5053553;28;20472;-43
2022/03/15 06:50:12;;;;;;;7.33;4.57;;;5.70;91.00;;;;;;5052883;28;20569;-42
2022/03/15 06:52:39;;;;;;;8.93;5.30;;;6.00;90.80;;;;;;5053523;28;20469;-42
2022/03/15 06:55:08;;;;;;;9.73;4.07;;;6.00;90.70;;;;;;5052987;28;20528;-43
2022/03/15 06:57:37;;;;;;;3.97;3.20;;;6.00;90.80;;;;;;5053881;28;20437;-42
2022/03/15 07:02:32;;;;;;;5.60;4.37;;;6.00;89.60;;;;;;5125512;22;20591;-43
2022/03/15 07:04:59;;;;;;;4.43;3.33;;;6.10;91.00;;;;;;5073633;28;20523;-43
2022/03/15 07:07:26;;;;;;;4.47;3.30;;;6.20;90.60;;;;;;5073708;28;20432;-44
2022/03/15 07:09:54;;;;;;;7.40;5.87;;;6.20;88.90;;;;;;5073121;28;21056;-43
2022/03/15 07:12:21;;;;;;;6.13;5.23;;;6.30;85.00;;;;;;5073539;28;20471;-43
2022/03/15 07:14:49;;;;;;;6.90;6.13;;;6.50;88.50;;;;;;5073321;28;20470;-43
2022/03/15 07:17:16;;;;;;;5.47;4.80;;;6.50;90.70;;;;;;5073337;28;20439;-43
2022/03/15 07:19:44;;;;;;;9.77;5.53;;;6.10;91.10;;;;;;5073202;28;20523;-43
2022/03/15 07:22:11;;;;;;;9.20;6.27;;;6.20;91.90;;;;;;5073088;28;20551;-43
2022/03/15 07:24:38;;;;;;;10.63;5.70;;;6.30;91.00;;;;;;5073211;28;20523;-43
2022/03/15 07:27:05;;;;;;;22.77;12.97;;;6.00;92.60;;;;;;5072435;28;20486;-43
2022/03/15 07:29:32;;;;;;;26.73;14.83;;;6.00;91.60;;;;;;5072456;28;20835;-43
2022/03/15 07:32:00;;;;;;;11.43;8.03;;;6.20;91.70;;;;;;5072889;28;20538;-43
2022/03/15 07:34:27;;;;;;;5.87;4.63;;;6.30;91.00;;;;;;5073037;28;20521;-43
2022/03/15 07:36:54;;;;;;;6.30;5.10;;;6.20;90.30;;;;;;5072702;28;20476;-43
2022/03/15 07:39:21;;;;;;;6.27;4.53;;;6.30;90.50;;;;;;5071123;28;20894;-43
2022/03/15 07:41:48;;;;;;;4.40;4.00;;;6.40;89.40;;;;;;5072700;28;20456;-44
2022/03/15 07:44:15;;;;;;;8.03;3.90;;;6.70;88.10;;;;;;5072461;28;20527;-43
2022/03/15 07:46:48;;;;;;;3.80;3.50;;;6.60;86.60;;;;;;5072780;28;20949;-43
2022/03/15 07:49:17;;;;;;;2.40;2.20;;;6.50;86.50;;;;;;5072333;28;20471;-44
2022/03/15 07:51:44;;;;;;;2.60;2.40;;;6.70;80.20;;;;;;5072288;28;20450;-43
2022/03/15 07:54:12;;;;;;;4.57;3.40;;;6.90;78.60;;;;;;5072345;28;20861;-43
2022/03/15 07:56:39;;;;;;;6.27;4.40;;;7.10;82.30;;;;;;5072243;28;20445;-43
2022/03/15 07:59:06;;;;;;;5.10;4.03;;;7.40;85.20;;;;;;5072179;28;20475;-43
2022/03/15 08:01:34;;;;;;;5.07;4.57;;;7.50;86.30;;;;;;5072366;28;20907;-43
2022/03/15 08:04:01;;;;;;;4.17;3.47;;;7.70;85.70;;;;;;5072565;28;20470;-43
2022/03/15 08:06:30;;;;;;;6.33;5.50;;;7.90;85.40;;;;;;5071953;28;20475;-43
2022/03/15 08:08:58;;;;;;;5.90;4.60;;;8.00;86.10;;;;;;5072149;28;20491;-43
2022/03/15 08:11:26;;;;;;;5.43;4.60;;;8.00;85.90;;;;;;5071675;28;20541;-43
2022/03/15 08:13:54;;;;;;;8.83;5.13;;;8.10;86.30;;;;;;5071927;28;20980;-43
2022/03/15 08:16:22;;;;;;;6.70;4.67;;;7.70;85.80;;;;;;5072022;28;20448;-42
2022/03/15 08:18:49;;;;;;;15.73;5.00;;;7.70;86.90;;;;;;5072425;28;20447;-44
2022/03/15 08:21:16;;;;;;;4.80;4.30;;;7.80;87.50;;;;;;5070423;28;20468;-43
2022/03/15 08:23:45;;;;;;;8.13;5.00;;;8.10;86.90;;;;;;5070514;28;20483;-43
2022/03/15 08:26:12;;;;;;;6.40;3.57;;;8.20;87.00;;;;;;5070524;28;20987;-42
2022/03/15 08:28:39;;;;;;;4.90;3.13;;;8.30;83.90;;;;;;5070704;28;20869;-43
2022/03/15 08:31:06;;;;;;;9.73;6.00;;;8.30;80.80;;;;;;5070997;28;20544;-43
2022/03/15 08:33:34;;;;;;;4.63;4.23;;;8.40;79.10;;;;;;5071670;28;20531;-43
2022/03/15 08:36:01;;;;;;;7.73;6.07;;;8.60;79.50;;;;;;5071290;28;20861;-43
2022/03/15 08:38:29;;;;;;;6.17;4.90;;;8.70;82.00;;;;;;5071593;28;20965;-43
2022/03/15 08:40:57;;;;;;;3.83;3.50;;;8.80;81.20;;;;;;5071241;28;20817;-43
2022/03/15 08:43:25;;;;;;;4.13;3.53;;;8.90;78.60;;;;;;5071957;28;20440;-44
2022/03/15 08:45:52;;;;;;;5.00;4.40;;;8.90;78.40;;;;;;5072244;28;20452;-43
2022/03/15 08:48:19;;;;;;;3.80;3.50;;;8.90;78.90;;;;;;5072055;28;20487;-43
2022/03/15 08:50:47;;;;;;;4.93;3.27;;;9.00;78.50;;;;;;5071541;28;20484;-43
2022/03/15 08:53:14;;;;;;;4.70;3.50;;;8.90;77.60;;;;;;5071349;28;20468;-43
2022/03/15 08:55:41;;;;;;;6.30;3.90;;;8.90;77.00;;;;;;5071266;28;20447;-43
2022/03/15 08:58:09;;;;;;;4.60;3.77;;;8.80;76.40;;;;;;5071686;28;20523;-43
2022/03/15 09:00:36;;;;;;;4.80;3.90;;;8.90;76.90;;;;;;5071117;28;20983;-43
2022/03/15 09:03:03;;;;;;;5.40;3.70;;;9.10;76.70;;;;;;5071407;28;20524;-43
2022/03/15 09:05:30;;;;;;;6.10;3.90;;;9.20;76.90;;;;;;5071396;28;21060;-43
2022/03/15 09:07:58;;;;;;;5.20;4.33;;;9.20;78.20;;;;;;5070949;28;20448;-43
2022/03/15 09:10:25;;;;;;;5.63;4.70;;;9.20;78.10;;;;;;5070715;28;20499;-43
2022/03/15 09:12:53;;;;;;;4.50;4.10;;;9.30;78.10;;;;;;5071493;28;20472;-44
2022/03/15 09:15:22;;;;;;;4.80;3.70;;;9.30;76.80;;;;;;5071623;28;20450;-44
2022/03/15 09:17:49;;;;;;;45.40;30.60;;;9.20;77.30;;;;;;5071387;28;20527;-43
2022/03/15 09:20:17;;;;;;;8.00;4.80;;;9.30;77.00;;;;;;5070837;28;20471;-43
2022/03/15 09:22:44;;;;;;;4.40;4.10;;;9.30;78.20;;;;;;5071289;28;20483;-43
2022/03/15 09:25:11;;;;;;;4.43;4.10;;;9.40;77.50;;;;;;5071038;28;20483;-43
2022/03/15 09:27:38;;;;;;;4.10;3.70;;;9.50;76.50;;;;;;5070872;28;20837;-44
2022/03/15 09:30:07;;;;;;;4.80;3.87;;;9.40;76.60;;;;;;5071038;28;20563;-44
2022/03/15 09:32:35;;;;;;;4.93;3.80;;;9.60;75.90;;;;;;5070822;28;20440;-44
2022/03/15 09:35:02;;;;;;;10.93;3.57;;;9.80;75.30;;;;;;5071107;28;20479;-43
2022/03/15 09:37:29;;;;;;;5.80;3.73;;;10.00;73.80;;;;;;5071004;28;20483;-43
2022/03/15 09:39:57;;;;;;;4.90;4.40;;;10.10;75.10;;;;;;5070808;28;20479;-43
2022/03/15 09:42:26;;;;;;;4.40;4.00;;;10.10;72.60;;;;;;5070832;28;20502;-45
2022/03/15 09:44:53;;;;;;;4.45;3.95;;;10.10;72.90;;;;;;5070410;28;20438;-43
2022/03/15 09:47:25;;;;;;;5.60;3.50;;;10.20;73.70;;;;;;5070386;28;20469;-43
2022/03/15 09:49:54;;;;;;;3.27;2.97;;;10.10;72.80;;;;;;5070773;28;20237;-44
2022/03/15 09:52:22;;;;;;;5.53;3.80;;;10.00;71.60;;;;;;5074216;28;20464;-43
2022/03/15 09:54:50;;;;;;;10.27;4.50;;;10.10;72.80;;;;;;5074757;28;20468;-44
2022/03/15 09:57:17;;;;;;;8.03;3.73;;;10.10;73.00;;;;;;5074594;28;20959;-43
2022/03/15 09:59:43;;;;;;;3.87;3.47;;;10.20;73.20;;;;;;5074785;28;20447;-43
2022/03/15 10:02:13;;;;;;;3.43;3.13;;;10.30;73.10;;;;;;5074746;28;20909;-43
2022/03/15 10:04:40;;;;;;;5.60;3.63;;;10.30;73.50;;;;;;5074602;28;20899;-43
2022/03/15 10:07:11;;;;;;;10.50;4.33;;;10.00;74.00;;;;;;5074745;28;20468;-43
2022/03/15 10:09:38;;;;;;;11.40;4.60;;;10.10;75.00;;;;;;5074344;28;20455;-44
2022/03/15 10:12:08;;;;;;;8.07;4.60;;;10.20;77.00;;;;;;5074093;28;20530;-44
2022/03/15 10:14:42;;;;;;;15.17;5.30;;;10.20;77.20;;;;;;5074315;28;20448;-43
2022/03/15 10:17:11;;;;;;;4.63;4.23;;;10.20;77.50;;;;;;5074384;28;20922;-44
2022/03/15 10:19:38;;;;;;;6.90;5.73;;;10.20;77.50;;;;;;5074262;28;20934;-43
2022/03/15 10:22:10;;;;;;;4.93;3.53;;;10.30;76.10;;;;;;5074083;28;20552;-43
2022/03/15 10:24:39;;;;;;;4.90;4.10;;;10.30;75.20;;;;;;5077452;28;20454;-43
2022/03/15 10:27:08;;;;;;;5.10;4.20;;;10.30;74.90;;;;;;5075575;28;20440;-43
2022/03/15 10:29:36;;;;;;;5.33;4.73;;;10.30;74.70;;;;;;5073726;28;20540;-43
2022/03/15 10:32:04;;;;;;;6.57;5.40;;;10.30;75.80;;;;;;5073648;28;20487;-43
2022/03/15 10:34:31;;;;;;;14.33;5.07;;;10.20;75.60;;;;;;5074097;28;20478;-43
2022/03/15 10:36:58;;;;;;;8.93;3.80;;;10.20;75.10;;;;;;5073974;28;20472;-43
2022/03/15 10:39:27;;;;;;;9.50;4.30;;;10.20;74.50;;;;;;5072579;28;20479;-43
2022/03/15 10:41:56;;;;;;;6.20;4.70;;;10.20;76.90;;;;;;5072309;28;20457;-43
2022/03/15 10:44:25;;;;;;;10.87;4.90;;;10.30;76.70;;;;;;5071966;28;20476;-43
2022/03/15 10:47:12;;;;;;;5.03;3.57;;;10.30;75.50;;;;;;5072522;28;20475;-43
2022/03/15 10:49:48;;;;;;;8.33;4.40;;;10.30;75.50;;;;;;5072051;28;20443;-44
2022/03/15 10:52:16;;;;;;;6.67;4.53;;;10.40;76.00;;;;;;5072061;28;20483;-44
2022/03/15 10:54:45;;;;;;;5.30;3.83;;;10.50;76.40;;;;;;5072724;28;20979;-45
2022/03/15 10:57:12;;;;;;;6.57;4.30;;;10.40;74.70;;;;;;5073513;28;20448;-43
2022/03/15 10:59:43;;;;;;;5.30;3.73;;;10.40;75.50;;;;;;5073136;28;20480;-43
2022/03/15 11:02:12;;;;;;;5.60;4.43;;;10.40;73.30;;;;;;5072545;28;20495;-44
2022/03/15 11:04:47;;;;;;;8.47;6.23;;;10.40;73.20;;;;;;5073302;28;20543;-43
2022/03/15 11:07:16;;;;;;;4.90;3.60;;;10.50;73.90;;;;;;5073439;28;20440;-43
2022/03/15 11:09:44;;;;;;;10.87;4.23;;;10.60;73.90;;;;;;5072935;28;20445;-43
2022/03/15 11:12:11;;;;;;;6.23;4.80;;;10.70;74.60;;;;;;5072761;28;20511;-43
2022/03/15 11:14:40;;;;;;;5.10;4.57;;;10.90;76.90;;;;;;5073349;28;20483;-43
2022/03/15 11:17:09;;;;;;;4.47;3.60;;;10.90;75.10;;;;;;5073202;28;20437;-44
2022/03/15 11:19:40;;;;;;;3.10;2.10;;;10.80;73.90;;;;;;5072952;28;20464;-43
2022/03/15 11:22:09;;;;;;;19.63;3.07;;;10.90;77.00;;;;;;5073418;28;20488;-43
2022/03/15 11:24:40;;;;;;;3.27;1.00;;;11.70;73.30;;;;;;5072811;28;20516;-43
2022/03/15 11:27:09;;;;;;;2.90;0.83;;;12.60;74.10;;;;;;5072883;28;20967;-43
2022/03/15 11:29:38;;;;;;;4.30;1.10;;;13.00;71.00;;;;;;5072810;28;20449;-43
2022/03/15 11:32:07;;;;;;;0.80;0.70;;;13.30;72.20;;;;;;5072015;28;20570;-43
2022/03/15 11:34:36;;;;;;;1.10;0.80;;;13.50;71.20;;;;;;5072043;28;20464;-44
2022/03/15 11:37:04;;;;;;;0.70;0.60;;;13.60;68.30;;;;;;5072336;28;20524;-43
2022/03/15 11:39:32;;;;;;;1.27;1.10;;;13.70;70.50;;;;;;5072187;28;20439;-44
2022/03/15 11:42:00;;;;;;;2.23;0.90;;;13.70;67.50;;;;;;5069769;28;20452;-43
2022/03/15 11:44:36;;;;;;;2.60;1.17;;;13.80;70.20;;;;;;5071337;28;20472;-44
2022/03/15 11:47:16;;;;;;;1.80;1.43;;;13.90;66.80;;;;;;5070869;28;20523;-45
2022/03/15 11:49:54;;;;;;;4.77;3.53;;;13.90;68.50;;;;;;5070766;28;20432;-43
2022/03/15 11:52:31;;;;;;;5.97;4.80;;;13.60;70.70;;;;;;5070533;28;20512;-45
2022/03/15 11:55:03;;;;;;;5.43;4.87;;;13.00;68.60;;;;;;5070301;28;20476;-44
2022/03/15 11:57:33;;;;;;;5.60;4.97;;;12.30;71.40;;;;;;5070505;28;20993;-43
2022/03/15 12:00:01;;;;;;;6.90;4.30;;;12.00;73.00;;;;;;5070808;28;20456;-44
2022/03/15 12:02:30;;;;;;;6.80;3.60;;;11.80;72.10;;;;;;5071266;28;20496;-43
2022/03/15 12:04:59;;;;;;;4.80;3.50;;;11.60;72.40;;;;;;5072368;28;20498;-45
2022/03/15 12:07:44;;;;;;;5.70;4.40;;;11.60;73.50;;;;;;5072058;28;20444;-45
2022/03/15 12:10:12;;;;;;;6.03;5.43;;;11.90;74.70;;;;;;5071645;28;20436;-44
2022/03/15 12:12:42;;;;;;;6.47;4.93;;;11.80;73.70;;;;;;5072208;28;20569;-43
2022/03/15 12:15:22;;;;;;;5.60;4.50;;;11.70;73.70;;;;;;5070598;28;20937;-43
2022/03/15 12:17:49;;;;;;;6.43;5.67;;;11.60;73.20;;;;;;5070715;28;20472;-43
2022/03/15 12:20:16;;;;;;;5.87;4.87;;;11.60;75.40;;;;;;5070075;28;20483;-44
2022/03/15 12:22:47;;;;;;;5.67;4.93;;;11.60;75.00;;;;;;5070691;28;20447;-43
2022/03/15 12:25:18;;;;;;;2.60;2.40;;;11.60;77.50;;;;;;5069860;28;20453;-43
2022/03/15 12:27:47;;;;;;;2.23;1.40;;;11.90;73.60;;;;;;5069520;28;20841;-43
2022/03/15 12:30:27;;;;;;;2.20;1.17;;;12.20;72.30;;;;;;5071165;28;20440;-43
2022/03/15 12:32:55;;;;;;;2.27;1.90;;;12.60;73.40;;;;;;5071251;28;20503;-44
2022/03/15 12:35:25;;;;;;;2.33;1.50;;;12.90;74.00;;;;;;5071106;28;20474;-44
2022/03/15 12:37:52;;;;;;;1.97;1.40;;;13.20;71.10;;;;;;5071310;28;20459;-44
2022/03/15 12:40:30;;;;;;;2.10;1.00;;;13.50;71.60;;;;;;5071614;28;20444;-44
2022/03/15 12:43:01;;;;;;;14.73;2.23;;;13.70;71.00;;;;;;5071578;28;20437;-44
2022/03/15 12:45:29;;;;;;;2.37;1.07;;;13.90;67.60;;;;;;5071422;28;20448;-43
2022/03/15 12:48:04;;;;;;;1.30;1.00;;;14.10;69.60;;;;;;5071508;28;20460;-46
2022/03/15 12:50:33;;;;;;;6.43;5.57;;;14.10;69.60;;;;;;5070274;28;20463;-44
2022/03/15 12:53:12;;;;;;;1.43;1.20;;;14.10;71.20;;;;;;5069966;28;20546;-43
2022/03/15 12:55:42;;;;;;;1.67;0.93;;;14.10;67.30;;;;;;5070048;28;20903;-44
2022/03/15 12:58:10;;;;;;;0.97;0.90;;;14.10;67.40;;;;;;5069917;28;20444;-43
2022/03/15 13:00:40;;;;;;;1.57;1.47;;;14.00;69.00;;;;;;5069062;28;20507;-44